createdAt,value
2023-04-28T00:00:42.478Z,25.30
2023-04-28T00:01:42.520Z,27.30
2023-04-28T00:02:42.603Z,29.72
2023-04-28T00:03:42.723Z,25.00
2023-04-28T00:04:42.687Z,30.74
2023-04-28T00:05:42.662Z,25.00
2023-04-28T00:06:42.636Z,25.00
2023-04-28T00:07:42.654Z,25.75
2023-04-28T00:08:42.681Z,25.12
2023-04-28T00:09:42.712Z,0.00
2023-04-28T00:10:42.774Z,0.00
2023-04-28T00:11:42.763Z,28.01
2023-04-28T00:12:42.785Z,33.28
2023-04-28T00:13:42.802Z,33.75
2023-04-28T00:14:42.840Z,63.84
2023-04-28T00:15:42.891Z,134.34
2023-04-28T00:16:43.228Z,203.20
2023-04-28T00:17:43.136Z,250.00
2023-04-28T00:18:42.948Z,249.38
2023-04-28T00:19:42.982Z,250.00
2023-04-28T00:20:43.057Z,248.95
2023-04-28T00:21:43.093Z,246.57
2023-04-28T00:22:43.104Z,240.67
2023-04-28T00:23:43.131Z,219.10
2023-04-28T00:24:43.161Z,189.17
2023-04-28T00:25:43.219Z,185.25
2023-04-28T00:26:43.278Z,201.19
2023-04-28T00:27:43.303Z,211.20
2023-04-28T00:28:43.293Z,224.84
2023-04-28T00:29:44.454Z,203.76
2023-04-28T00:30:43.376Z,172.17
2023-04-28T00:31:43.473Z,155.99
2023-04-28T00:32:43.458Z,137.40
2023-04-28T00:33:43.543Z,120.29
2023-04-28T00:34:43.634Z,116.26
2023-04-28T00:35:43.728Z,111.60
2023-04-28T00:36:43.837Z,95.06
2023-04-28T00:37:43.883Z,100.87
2023-04-28T00:38:43.971Z,84.68
2023-04-28T00:39:44.062Z,82.65
2023-04-28T00:40:44.197Z,67.06
2023-04-28T00:41:44.224Z,55.28
2023-04-28T00:42:44.356Z,47.13
2023-04-28T00:43:44.418Z,35.18
2023-04-28T00:44:44.539Z,33.73
2023-04-28T00:45:44.651Z,46.93
2023-04-28T00:46:44.753Z,75.50
2023-04-28T00:47:44.793Z,97.65
2023-04-28T00:48:44.821Z,112.40
2023-04-28T00:49:44.882Z,128.12
2023-04-28T00:50:44.960Z,141.66
2023-04-28T00:51:45.081Z,145.80
2023-04-28T00:52:45.124Z,156.28
2023-04-28T00:53:45.224Z,152.44
2023-04-28T00:54:45.316Z,145.49
2023-04-28T00:55:45.431Z,140.50
2023-04-28T00:56:45.497Z,131.44
2023-04-28T00:57:45.609Z,133.53
2023-04-28T00:58:45.707Z,129.37
2023-04-28T00:59:45.792Z,131.28
2023-04-28T01:00:45.864Z,120.16
2023-04-28T01:01:46.042Z,94.52
2023-04-28T01:02:46.144Z,90.26
2023-04-28T01:03:46.251Z,73.73
2023-04-28T01:04:46.164Z,76.72
2023-04-28T01:05:46.091Z,83.08
2023-04-28T01:06:46.187Z,86.95
2023-04-28T01:07:46.253Z,97.89
2023-04-28T01:08:46.309Z,116.09
2023-04-28T01:09:46.355Z,165.73
2023-04-28T01:10:46.400Z,231.41
2023-04-28T01:11:46.544Z,272.20
2023-04-28T01:12:46.560Z,285.45
2023-04-28T01:13:46.569Z,287.90
2023-04-28T01:14:46.619Z,276.83
2023-04-28T01:15:46.650Z,264.26
2023-04-28T01:16:46.717Z,257.36
2023-04-28T01:17:46.830Z,250.43
2023-04-28T01:18:46.816Z,249.58
2023-04-28T01:19:46.914Z,244.32
2023-04-28T01:20:46.967Z,234.56
2023-04-28T01:21:47.124Z,227.61
2023-04-28T01:22:47.177Z,221.23
2023-04-28T01:23:48.506Z,217.39
2023-04-28T01:24:47.400Z,217.25
2023-04-28T01:25:48.044Z,212.30
2023-04-28T01:26:47.579Z,202.44
2023-04-28T01:27:47.671Z,194.17
2023-04-28T01:28:47.773Z,184.82
2023-04-28T01:29:47.886Z,170.82
2023-04-28T01:30:48.030Z,159.81
2023-04-28T01:31:48.104Z,153.86
2023-04-28T01:32:48.200Z,142.12
2023-04-28T01:33:48.258Z,136.42
2023-04-28T01:34:48.363Z,132.61
2023-04-28T01:35:48.504Z,130.85
2023-04-28T01:36:48.560Z,126.89
2023-04-28T01:37:48.649Z,127.22
2023-04-28T01:38:49.034Z,117.91
2023-04-28T01:39:48.887Z,107.22
2023-04-28T01:40:48.933Z,104.09
2023-04-28T01:41:48.991Z,105.06
2023-04-28T01:42:49.075Z,103.25
2023-04-28T01:43:49.163Z,99.90
2023-04-28T01:44:49.224Z,92.56
2023-04-28T01:45:49.335Z,94.64
2023-04-28T01:46:49.382Z,90.44
2023-04-28T01:47:49.482Z,89.78
2023-04-28T01:48:49.504Z,90.44
2023-04-28T01:49:49.576Z,92.07
2023-04-28T01:50:49.658Z,85.11
2023-04-28T01:51:49.741Z,85.42
2023-04-28T01:52:49.809Z,83.59
2023-04-28T01:53:49.901Z,81.88
2023-04-28T01:54:49.968Z,82.32
2023-04-28T01:55:50.051Z,89.39
2023-04-28T01:56:50.117Z,95.10
2023-04-28T01:57:50.216Z,95.57
2023-04-28T01:58:50.243Z,72.95
2023-04-28T01:59:50.277Z,34.74
2023-04-28T02:00:50.310Z,39.04
2023-04-28T02:01:50.441Z,24.28
2023-04-28T02:02:50.516Z,22.32
2023-04-28T02:03:50.649Z,26.85
2023-04-28T02:04:50.629Z,31.40
2023-04-28T02:05:50.546Z,35.06
2023-04-28T02:06:50.582Z,46.36
2023-04-28T02:07:50.649Z,57.09
2023-04-28T02:08:50.754Z,67.77
2023-04-28T02:09:50.852Z,77.04
2023-04-28T02:10:51.025Z,107.85
2023-04-28T02:11:51.038Z,138.31
2023-04-28T02:12:51.081Z,155.07
2023-04-28T02:13:51.168Z,159.29
2023-04-28T02:14:51.251Z,170.15
2023-04-28T02:15:51.420Z,184.61
2023-04-28T02:16:51.399Z,205.41
2023-04-28T02:17:51.531Z,223.03
2023-04-28T02:18:51.595Z,230.27
2023-04-28T02:19:51.621Z,235.42
2023-04-28T02:20:51.705Z,238.55
2023-04-28T02:21:51.845Z,242.59
2023-04-28T02:22:51.966Z,245.15
2023-04-28T02:23:52.036Z,247.31
2023-04-28T02:24:52.132Z,248.29
2023-04-28T02:25:52.291Z,249.68
2023-04-28T02:26:52.317Z,250.00
2023-04-28T02:27:52.401Z,249.04
2023-04-28T02:28:52.505Z,249.85
2023-04-28T02:29:52.594Z,249.69
2023-04-28T02:30:52.677Z,246.27
2023-04-28T02:31:52.823Z,244.91
2023-04-28T02:32:52.901Z,239.37
2023-04-28T02:33:52.953Z,233.02
2023-04-28T02:34:53.056Z,218.60
2023-04-28T02:35:53.125Z,194.29
2023-04-28T02:36:53.190Z,186.64
2023-04-28T02:37:53.252Z,176.79
2023-04-28T02:38:53.308Z,161.58
2023-04-28T02:39:53.409Z,156.12
2023-04-28T02:40:53.430Z,152.55
2023-04-28T02:41:53.565Z,143.60
2023-04-28T02:42:53.537Z,136.86
2023-04-28T02:43:53.601Z,128.96
2023-04-28T02:44:53.670Z,104.82
2023-04-28T02:45:53.736Z,91.71
2023-04-28T02:46:53.808Z,86.75
2023-04-28T02:47:53.869Z,88.67
2023-04-28T02:48:53.847Z,86.95
2023-04-28T02:49:53.893Z,89.17
2023-04-28T02:50:53.969Z,83.35
2023-04-28T02:51:53.995Z,79.50
2023-04-28T02:52:54.040Z,85.31
2023-04-28T02:53:54.091Z,102.96
2023-04-28T02:54:54.148Z,119.74
2023-04-28T02:55:54.197Z,130.40
2023-04-28T02:56:54.273Z,143.92
2023-04-28T02:57:54.244Z,161.42
2023-04-28T02:58:54.298Z,178.48
2023-04-28T02:59:54.331Z,196.23
2023-04-28T03:00:54.407Z,211.83
2023-04-28T03:01:54.384Z,227.45
2023-04-28T03:02:54.627Z,239.87
2023-04-28T03:03:54.629Z,246.32
2023-04-28T03:04:54.556Z,249.59
2023-04-28T03:05:54.568Z,250.00
2023-04-28T03:06:54.637Z,249.32
2023-04-28T03:07:54.647Z,249.52
2023-04-28T03:08:54.686Z,245.62
2023-04-28T03:09:54.722Z,241.82
2023-04-28T03:10:54.789Z,240.43
2023-04-28T03:11:54.820Z,237.72
2023-04-28T03:12:54.851Z,229.71
2023-04-28T03:13:54.922Z,226.38
2023-04-28T03:14:54.945Z,222.49
2023-04-28T03:15:55.064Z,219.17
2023-04-28T03:16:55.061Z,217.71
2023-04-28T03:17:55.141Z,214.32
2023-04-28T03:18:55.177Z,215.66
2023-04-28T03:19:55.215Z,227.44
2023-04-28T03:20:55.262Z,236.23
2023-04-28T03:21:55.296Z,242.92
2023-04-28T03:22:55.355Z,245.28
2023-04-28T03:23:55.421Z,250.30
2023-04-28T03:24:55.478Z,231.28
2023-04-28T03:25:55.577Z,220.55
2023-04-28T03:26:55.636Z,214.64
2023-04-28T03:27:55.739Z,217.59
2023-04-28T03:28:55.841Z,224.59
2023-04-28T03:29:55.949Z,228.37
2023-04-28T03:30:56.036Z,217.92
2023-04-28T03:31:56.149Z,214.92
2023-04-28T03:32:56.237Z,217.57
2023-04-28T03:33:56.304Z,221.71
2023-04-28T03:34:56.386Z,221.24
2023-04-28T03:35:56.455Z,223.68
2023-04-28T03:36:56.522Z,221.51
2023-04-28T03:37:56.576Z,218.95
2023-04-28T03:38:56.675Z,229.75
2023-04-28T03:39:56.745Z,231.60
2023-04-28T03:40:56.811Z,224.37
2023-04-28T03:41:56.876Z,216.74
2023-04-28T03:42:56.945Z,212.58
2023-04-28T03:43:56.992Z,198.44
2023-04-28T03:44:57.064Z,189.24
2023-04-28T03:45:57.115Z,188.48
2023-04-28T03:46:57.164Z,193.21
2023-04-28T03:47:57.230Z,195.01
2023-04-28T03:48:57.231Z,199.06
2023-04-28T03:49:57.281Z,199.88
2023-04-28T03:50:57.314Z,199.23
2023-04-28T03:51:57.357Z,202.78
2023-04-28T03:52:57.430Z,204.83
2023-04-28T03:53:57.480Z,197.05
2023-04-28T03:54:57.588Z,190.07
2023-04-28T03:55:57.620Z,187.40
2023-04-28T03:56:57.669Z,185.20
2023-04-28T03:57:57.728Z,186.29
2023-04-28T03:58:57.788Z,184.92
2023-04-28T03:59:57.821Z,192.75
2023-04-28T04:00:57.854Z,199.57
2023-04-28T04:01:57.907Z,205.89
2023-04-28T04:02:58.154Z,211.69
2023-04-28T04:03:58.229Z,216.73
2023-04-28T04:04:58.220Z,220.38
2023-04-28T04:05:58.010Z,223.52
2023-04-28T04:06:58.057Z,225.41
2023-04-28T04:07:58.107Z,230.22
2023-04-28T04:08:58.133Z,228.49
2023-04-28T04:09:58.207Z,228.31
2023-04-28T04:10:58.255Z,216.74
2023-04-28T04:11:58.240Z,202.54
2023-04-28T04:12:58.296Z,189.58
2023-04-28T04:13:58.333Z,184.88
2023-04-28T04:14:58.394Z,187.02
2023-04-28T04:15:58.479Z,186.12
2023-04-28T04:16:58.474Z,187.44
2023-04-28T04:17:58.608Z,191.75
2023-04-28T04:18:58.570Z,195.11
2023-04-28T04:19:58.617Z,199.63
2023-04-28T04:20:58.655Z,203.43
2023-04-28T04:21:58.690Z,207.38
2023-04-28T04:22:58.729Z,211.75
2023-04-28T04:23:58.779Z,218.15
2023-04-28T04:24:58.817Z,223.88
2023-04-28T04:25:58.840Z,228.98
2023-04-28T04:26:58.908Z,227.79
2023-04-28T04:27:58.912Z,226.35
2023-04-28T04:28:58.948Z,227.24
2023-04-28T04:29:59.004Z,231.36
2023-04-28T04:30:59.043Z,232.61
2023-04-28T04:31:59.034Z,234.99
2023-04-28T04:32:59.077Z,239.89
2023-04-28T04:33:59.107Z,242.57
2023-04-28T04:34:59.130Z,247.24
2023-04-28T04:35:59.206Z,249.03
2023-04-28T04:36:59.241Z,250.00
2023-04-28T04:37:59.316Z,249.94
2023-04-28T04:38:59.407Z,249.38
2023-04-28T04:39:59.469Z,248.46
2023-04-28T04:40:59.536Z,242.43
2023-04-28T04:42:00.763Z,238.31
2023-04-28T04:42:59.614Z,229.68
2023-04-28T04:43:59.607Z,212.80
2023-04-28T04:44:59.623Z,203.48
2023-04-28T04:45:59.664Z,193.76
2023-04-28T04:46:59.726Z,193.81
2023-04-28T04:47:59.697Z,179.00
2023-04-28T04:48:59.671Z,172.27
2023-04-28T04:49:59.686Z,171.06
2023-04-28T04:50:59.735Z,160.65
2023-04-28T04:51:59.744Z,152.27
2023-04-28T04:52:59.742Z,151.09
2023-04-28T04:53:59.776Z,155.45
2023-04-28T04:54:59.790Z,163.45
2023-04-28T04:55:59.813Z,175.69
2023-04-28T04:56:59.827Z,186.56
2023-04-28T04:57:59.861Z,197.67
2023-04-28T04:58:59.910Z,208.45
2023-04-28T04:59:59.863Z,237.33
2023-04-28T05:00:59.909Z,257.25
2023-04-28T05:01:59.983Z,257.60
2023-04-28T05:02:59.995Z,250.12
2023-04-28T05:04:00.225Z,249.38
2023-04-28T05:05:12.387Z,248.29
2023-04-28T05:05:59.983Z,248.31
2023-04-28T05:07:00.260Z,248.52
2023-04-28T05:08:00.002Z,249.36
2023-04-28T05:09:00.016Z,249.22
2023-04-28T05:10:00.033Z,248.71
2023-04-28T05:11:00.070Z,249.27
2023-04-28T05:12:00.147Z,250.00
2023-04-28T05:13:00.120Z,248.66
2023-04-28T05:14:00.110Z,249.79
2023-04-28T05:15:00.153Z,249.47
2023-04-28T05:16:00.301Z,250.00
2023-04-28T05:17:00.226Z,250.00
2023-04-28T05:18:00.245Z,249.66
2023-04-28T05:19:00.271Z,250.00
2023-04-28T05:20:00.215Z,249.63
2023-04-28T05:21:00.229Z,249.12
2023-04-28T05:22:00.274Z,248.99
2023-04-28T05:23:00.275Z,240.85
2023-04-28T05:24:00.777Z,238.42
2023-04-28T05:25:00.282Z,233.41
2023-04-28T05:26:00.310Z,225.09
2023-04-28T05:27:00.301Z,219.53
2023-04-28T05:28:00.781Z,218.24
2023-04-28T05:29:00.793Z,210.74
2023-04-28T05:30:00.515Z,210.72
2023-04-28T05:31:00.609Z,212.88
2023-04-28T05:32:00.728Z,218.11
2023-04-28T05:33:00.752Z,220.24
2023-04-28T05:34:01.284Z,222.92
2023-04-28T05:35:00.860Z,231.83
2023-04-28T05:36:01.025Z,241.87
2023-04-28T05:37:01.021Z,247.68
2023-04-28T05:38:01.094Z,249.89
2023-04-28T05:39:01.587Z,249.94
2023-04-28T05:40:01.242Z,250.00
2023-04-28T05:41:01.315Z,250.00
2023-04-28T05:42:01.808Z,250.24
2023-04-28T05:43:01.454Z,248.92
2023-04-28T05:44:01.507Z,249.81
2023-04-28T05:45:09.215Z,247.32
2023-04-28T05:46:01.696Z,247.34
2023-04-28T05:47:02.036Z,247.33
2023-04-28T05:48:01.670Z,247.10
2023-04-28T05:49:01.671Z,248.45
2023-04-28T05:50:01.803Z,252.29
2023-04-28T05:51:01.673Z,249.95
2023-04-28T05:52:01.749Z,250.00
2023-04-28T05:53:01.667Z,249.93
2023-04-28T05:54:02.669Z,250.00
2023-04-28T05:55:02.143Z,249.98
2023-04-28T05:56:01.742Z,249.63
2023-04-28T05:57:02.796Z,247.86
2023-04-28T05:58:02.788Z,243.16
2023-04-28T05:59:09.194Z,240.88
2023-04-28T06:00:02.812Z,241.02
2023-04-28T06:02:02.814Z,241.07
2023-04-28T06:03:02.046Z,241.13
2023-04-28T06:04:18.427Z,241.18
2023-04-28T06:05:02.173Z,240.87
2023-04-28T06:06:04.123Z,233.63
2023-04-28T06:07:02.291Z,234.12
2023-04-28T06:08:02.287Z,230.94
2023-04-28T06:09:01.832Z,231.25
2023-04-28T06:10:01.866Z,230.56
2023-04-28T06:11:01.860Z,227.43
2023-04-28T06:12:02.277Z,227.29
2023-04-28T06:13:01.920Z,223.91
2023-04-28T06:14:01.966Z,218.43
2023-04-28T06:15:02.094Z,214.04
2023-04-28T06:16:02.170Z,203.23
2023-04-28T06:17:02.276Z,194.22
2023-04-28T06:18:02.383Z,186.68
2023-04-28T06:19:02.271Z,180.40
2023-04-28T06:20:02.320Z,174.31
2023-04-28T06:21:02.433Z,167.31
2023-04-28T06:22:02.789Z,157.85
2023-04-28T06:23:02.784Z,149.35
2023-04-28T06:24:02.630Z,138.78
2023-04-28T06:25:02.746Z,128.15
2023-04-28T06:26:02.972Z,121.53
2023-04-28T06:27:03.275Z,124.99
2023-04-28T06:28:03.277Z,131.87
2023-04-28T06:29:02.953Z,138.88
2023-04-28T06:30:02.994Z,142.28
2023-04-28T06:31:03.081Z,133.22
2023-04-28T06:32:03.286Z,114.79
2023-04-28T06:33:03.112Z,97.90
2023-04-28T06:34:03.137Z,96.13
2023-04-28T06:35:03.260Z,90.92
2023-04-28T06:36:03.207Z,86.32
2023-04-28T06:37:03.292Z,82.28
2023-04-28T06:38:03.270Z,92.06
2023-04-28T06:39:03.344Z,100.42
2023-04-28T06:40:03.370Z,97.13
2023-04-28T06:41:03.427Z,99.28
2023-04-28T06:42:03.783Z,111.33
2023-04-28T06:43:03.851Z,126.00
2023-04-28T06:44:03.559Z,138.44
2023-04-28T06:45:11.039Z,146.76
2023-04-28T06:46:03.688Z,146.90
2023-04-28T06:47:04.057Z,143.61
2023-04-28T06:48:03.831Z,128.86
2023-04-28T06:49:03.715Z,102.23
2023-04-28T06:50:03.724Z,77.82
2023-04-28T06:51:03.786Z,58.12
2023-04-28T06:52:03.833Z,41.75
2023-04-28T06:53:04.293Z,28.23
2023-04-28T06:54:11.525Z,30.53
2023-04-28T06:55:03.857Z,28.57
2023-04-28T06:56:03.877Z,21.80
2023-04-28T06:57:03.894Z,13.61
2023-04-28T06:58:04.540Z,7.02
2023-04-28T06:59:03.932Z,0.00
2023-04-28T07:00:03.966Z,0.00
2023-04-28T07:01:04.037Z,15.75
2023-04-28T07:02:04.137Z,29.92
2023-04-28T07:03:04.556Z,30.45
2023-04-28T07:04:04.227Z,36.34
2023-04-28T07:05:05.110Z,43.62
2023-04-28T07:06:04.123Z,52.23
2023-04-28T07:07:05.200Z,54.81
2023-04-28T07:08:04.282Z,55.54
2023-04-28T07:09:04.233Z,50.44
2023-04-28T07:10:04.347Z,49.25
2023-04-28T07:11:05.130Z,49.69
2023-04-28T07:12:04.797Z,52.54
2023-04-28T07:13:04.826Z,55.63
2023-04-28T07:14:04.432Z,57.03
2023-04-28T07:15:04.503Z,55.96
2023-04-28T07:16:04.634Z,55.47
2023-04-28T07:17:04.663Z,57.21
2023-04-28T07:18:05.385Z,54.74
2023-04-28T07:19:07.717Z,52.31
2023-04-28T07:20:04.949Z,49.40
2023-04-28T07:21:05.513Z,50.92
2023-04-28T07:22:12.647Z,54.42
2023-04-28T07:23:05.316Z,54.51
2023-04-28T07:24:04.939Z,54.56
2023-04-28T07:25:05.293Z,55.66
2023-04-28T07:26:05.372Z,58.56
2023-04-28T07:27:05.307Z,67.12
2023-04-28T07:28:05.288Z,81.28
2023-04-28T07:29:05.106Z,90.31
2023-04-28T07:30:18.516Z,94.93
2023-04-28T07:31:05.208Z,95.14
2023-04-28T07:32:07.490Z,96.05
2023-04-28T07:33:05.319Z,95.23
2023-04-28T07:34:05.286Z,96.72
2023-04-28T07:35:05.308Z,99.90
2023-04-28T07:36:05.805Z,103.83
2023-04-28T07:37:05.458Z,107.82
2023-04-28T07:38:05.635Z,112.74
2023-04-28T07:39:05.447Z,114.83
2023-04-28T07:40:05.502Z,114.26
2023-04-28T07:41:07.577Z,113.03
2023-04-28T07:42:05.807Z,113.10
2023-04-28T07:43:05.801Z,112.74
2023-04-28T07:44:05.699Z,107.63
2023-04-28T07:45:05.790Z,105.51
2023-04-28T07:46:05.932Z,103.10
2023-04-28T07:47:05.980Z,102.31
2023-04-28T07:48:06.367Z,101.48
2023-04-28T07:49:06.190Z,102.52
2023-04-28T07:50:06.333Z,101.96
2023-04-28T07:51:06.365Z,102.83
2023-04-28T07:52:06.817Z,101.79
2023-04-28T07:53:07.293Z,100.74
2023-04-28T07:54:06.641Z,102.55
2023-04-28T07:55:07.662Z,104.00
2023-04-28T07:56:06.687Z,99.02
2023-04-28T07:57:07.108Z,91.79
2023-04-28T07:58:06.792Z,86.64
2023-04-28T07:59:06.821Z,86.52
2023-04-28T08:00:06.880Z,88.39
2023-04-28T08:01:06.925Z,88.61
2023-04-28T08:02:07.303Z,88.68
2023-04-28T08:03:07.231Z,90.54
2023-04-28T08:04:07.514Z,93.12
2023-04-28T08:05:07.234Z,91.30
2023-04-28T08:06:07.408Z,81.51
2023-04-28T08:07:07.314Z,75.35
2023-04-28T08:08:07.336Z,73.63
2023-04-28T08:09:07.638Z,71.44
2023-04-28T08:10:07.496Z,58.08
2023-04-28T08:11:07.555Z,48.90
2023-04-28T08:12:07.799Z,42.78
2023-04-28T08:13:07.774Z,39.66
2023-04-28T08:14:07.792Z,40.09
2023-04-28T08:15:07.860Z,41.57
2023-04-28T08:16:07.961Z,42.35
2023-04-28T08:17:08.005Z,49.28
2023-04-28T08:18:08.072Z,46.82
2023-04-28T08:19:08.294Z,48.10
2023-04-28T08:20:07.564Z,44.55
2023-04-28T08:21:08.234Z,38.86
2023-04-28T08:22:08.302Z,30.04
2023-04-28T08:23:08.326Z,26.63
2023-04-28T08:24:08.373Z,28.13
2023-04-28T08:25:08.430Z,29.69
2023-04-28T08:26:08.490Z,30.23
2023-04-28T08:27:08.825Z,29.75
2023-04-28T08:28:08.570Z,29.91
2023-04-28T08:29:09.792Z,32.05
2023-04-28T08:30:08.802Z,30.15
2023-04-28T08:31:10.579Z,35.54
2023-04-28T08:32:08.712Z,31.00
2023-04-28T08:33:08.863Z,25.46
2023-04-28T08:34:08.809Z,25.05
2023-04-28T08:35:08.739Z,25.00
2023-04-28T08:36:08.787Z,28.61
2023-04-28T08:37:08.784Z,32.16
2023-04-28T08:38:08.785Z,25.28
2023-04-28T08:39:12.965Z,23.13
2023-04-28T08:40:08.810Z,23.16
2023-04-28T08:41:09.043Z,9.28
2023-04-28T08:42:09.329Z,43.56
2023-04-28T08:43:09.351Z,34.99
2023-04-28T08:44:08.867Z,25.11
2023-04-28T08:45:08.993Z,18.59
2023-04-28T08:46:08.926Z,21.99
2023-04-28T08:47:09.304Z,15.82
2023-04-28T08:48:09.322Z,9.29
2023-04-28T08:49:08.960Z,10.18
2023-04-28T08:50:09.061Z,14.45
2023-04-28T08:51:08.988Z,13.22
2023-04-28T08:52:09.201Z,21.37
2023-04-28T08:53:09.339Z,23.38
2023-04-28T08:54:29.195Z,19.79
2023-04-28T08:55:09.079Z,18.03
2023-04-28T08:56:09.161Z,12.78
2023-04-28T08:57:09.198Z,11.73
2023-04-28T08:58:09.958Z,11.34
2023-04-28T08:59:09.123Z,12.73
2023-04-28T09:00:09.105Z,14.28
2023-04-28T09:01:09.131Z,15.71
2023-04-28T09:02:09.499Z,24.09
2023-04-28T09:03:16.984Z,29.56
2023-04-28T09:04:10.152Z,29.70
2023-04-28T09:05:09.611Z,29.84
2023-04-28T09:06:09.179Z,30.95
2023-04-28T09:07:09.429Z,33.62
2023-04-28T09:08:09.478Z,35.43
2023-04-28T09:09:09.448Z,39.39
2023-04-28T09:10:09.432Z,45.12
2023-04-28T09:11:09.540Z,50.39
2023-04-28T09:12:11.406Z,48.82
2023-04-28T09:13:09.982Z,48.85
2023-04-28T09:14:09.574Z,49.41
2023-04-28T09:15:09.606Z,35.72
2023-04-28T09:16:09.475Z,24.03
2023-04-28T09:17:09.408Z,23.40
2023-04-28T09:18:09.952Z,25.08
2023-04-28T09:19:09.594Z,27.05
2023-04-28T09:20:09.509Z,27.25
2023-04-28T09:21:09.467Z,25.00
2023-04-28T09:22:24.787Z,25.09
2023-04-28T09:23:09.615Z,25.14
2023-04-28T09:24:09.702Z,25.12
2023-04-28T09:25:09.667Z,25.35
2023-04-28T09:26:09.664Z,25.61
2023-04-28T09:27:09.876Z,29.23
2023-04-28T09:28:10.470Z,25.00
2023-04-28T09:29:09.724Z,26.09
2023-04-28T09:31:36.362Z,25.00
2023-04-28T09:32:29.964Z,25.00
2023-04-28T09:33:29.748Z,25.00
2023-04-28T09:34:29.658Z,25.00
2023-04-28T09:35:29.621Z,25.00
2023-04-28T09:36:29.636Z,25.00
2023-04-28T09:37:29.768Z,6.42
2023-04-28T09:38:29.743Z,33.27
2023-04-28T09:39:29.660Z,51.03
2023-04-28T09:40:29.573Z,94.03
2023-04-28T09:41:29.526Z,88.29
2023-04-28T09:42:29.742Z,17.90
2023-04-28T09:43:29.540Z,10.59
2023-04-28T09:44:29.505Z,18.27
2023-04-28T09:45:30.496Z,10.47
2023-04-28T09:46:29.605Z,19.63
2023-04-28T09:47:29.845Z,31.79
2023-04-28T09:48:29.413Z,19.96
2023-04-28T09:49:30.239Z,0.00
2023-04-28T09:50:29.476Z,7.71
2023-04-28T09:51:29.525Z,25.00
2023-04-28T09:52:29.941Z,19.70
2023-04-28T09:53:29.555Z,11.48
2023-04-28T09:54:29.597Z,34.18
2023-04-28T09:55:29.588Z,73.49
2023-04-28T09:56:29.580Z,113.99
2023-04-28T09:57:29.766Z,91.26
2023-04-28T09:58:29.765Z,47.26
2023-04-28T09:59:29.598Z,44.38
2023-04-28T10:00:29.641Z,80.67
2023-04-28T10:01:29.716Z,114.20
2023-04-28T10:03:30.311Z,127.74
2023-04-28T10:04:29.856Z,129.22
2023-04-28T10:05:30.013Z,134.48
2023-04-28T10:06:29.659Z,137.18
2023-04-28T10:07:29.684Z,132.42
2023-04-28T10:08:29.768Z,98.23
2023-04-28T10:09:29.639Z,127.43
2023-04-28T10:10:29.666Z,141.03
2023-04-28T10:11:29.653Z,179.69
2023-04-28T10:12:29.649Z,197.31
2023-04-28T10:13:29.779Z,230.99
2023-04-28T10:14:29.576Z,257.35
2023-04-28T10:15:29.751Z,222.39
2023-04-28T10:16:29.630Z,184.59
2023-04-28T10:17:29.952Z,179.16
2023-04-28T10:18:29.829Z,190.28
2023-04-28T10:19:29.527Z,191.05
2023-04-28T10:20:30.284Z,191.92
2023-04-28T10:21:29.496Z,210.06
2023-04-28T10:22:29.513Z,208.11
2023-04-28T10:23:29.808Z,205.73
2023-04-28T10:24:29.867Z,147.64
2023-04-28T10:25:29.495Z,102.02
2023-04-28T10:26:29.520Z,88.41
2023-04-28T10:27:29.523Z,101.61
2023-04-28T10:28:29.797Z,89.73
2023-04-28T10:29:29.572Z,93.48
2023-04-28T10:30:30.329Z,78.10
2023-04-28T10:31:29.789Z,77.65
2023-04-28T10:32:29.667Z,82.58
2023-04-28T10:33:30.015Z,54.71
2023-04-28T10:34:31.426Z,32.09
2023-04-28T10:35:29.710Z,40.56
2023-04-28T10:36:35.959Z,109.66
2023-04-28T10:37:29.633Z,109.80
2023-04-28T10:38:29.762Z,78.41
2023-04-28T10:39:29.564Z,69.13
2023-04-28T10:40:29.810Z,59.76
2023-04-28T10:41:29.521Z,22.00
2023-04-28T10:42:29.506Z,50.59
2023-04-28T10:43:29.748Z,68.91
2023-04-28T10:44:29.447Z,67.44
2023-04-28T10:45:29.420Z,86.14
2023-04-28T10:46:29.770Z,80.38
2023-04-28T10:47:29.678Z,64.92
2023-04-28T10:48:29.380Z,93.83
2023-04-28T10:49:29.757Z,68.81
2023-04-28T10:50:38.535Z,62.99
2023-04-28T10:51:29.320Z,63.70
2023-04-28T10:52:29.254Z,66.95
2023-04-28T10:53:29.581Z,77.39
2023-04-28T10:54:29.198Z,88.29
2023-04-28T10:55:29.222Z,79.57
2023-04-28T10:56:29.259Z,63.23
2023-04-28T10:57:29.146Z,52.59
2023-04-28T10:58:29.340Z,30.92
2023-04-28T10:59:29.258Z,30.67
2023-04-28T11:00:29.099Z,60.25
2023-04-28T11:01:29.118Z,72.57
2023-04-28T11:02:30.195Z,67.27
2023-04-28T11:03:29.469Z,56.63
2023-04-28T11:04:29.329Z,49.41
2023-04-28T11:05:29.015Z,60.41
2023-04-28T11:06:29.142Z,65.63
2023-04-28T11:07:29.029Z,81.70
2023-04-28T11:08:29.002Z,76.50
2023-04-28T11:09:28.970Z,73.21
2023-04-28T11:10:29.263Z,81.14
2023-04-28T11:11:29.328Z,52.57
2023-04-28T11:12:29.128Z,28.49
2023-04-28T11:13:29.516Z,34.86
2023-04-28T11:14:29.258Z,31.77
2023-04-28T11:15:29.241Z,50.67
2023-04-28T11:16:29.881Z,54.71
2023-04-28T11:17:29.371Z,63.30
2023-04-28T11:18:29.288Z,36.81
2023-04-28T11:19:29.286Z,28.80
2023-04-28T11:20:29.770Z,16.26
2023-04-28T11:21:29.347Z,25.54
2023-04-28T11:22:29.274Z,57.72
2023-04-28T11:23:30.004Z,62.72
2023-04-28T11:24:30.029Z,41.27
2023-04-28T11:25:29.324Z,21.67
2023-04-28T11:26:29.349Z,18.08
2023-04-28T11:27:29.821Z,25.76
2023-04-28T11:28:29.419Z,51.63
2023-04-28T11:29:29.378Z,53.87
2023-04-28T11:30:29.387Z,53.93
2023-04-28T11:31:29.805Z,47.90
2023-04-28T11:32:29.486Z,40.22
2023-04-28T11:33:29.780Z,36.20
2023-04-28T11:34:29.409Z,62.84
2023-04-28T11:35:29.404Z,100.72
2023-04-28T11:36:29.768Z,144.72
2023-04-28T11:37:29.421Z,175.01
2023-04-28T11:38:29.430Z,181.87
2023-04-28T11:39:29.448Z,190.19
2023-04-28T11:40:30.209Z,189.25
2023-04-28T11:41:29.491Z,208.08
2023-04-28T11:42:29.500Z,237.25
2023-04-28T11:43:43.722Z,245.00
2023-04-28T11:44:29.508Z,245.09
2023-04-28T11:45:29.471Z,249.02
2023-04-28T11:46:29.488Z,261.20
2023-04-28T11:47:29.426Z,273.40
2023-04-28T11:48:29.366Z,324.49
2023-04-28T11:49:29.312Z,317.58
2023-04-28T11:50:29.279Z,277.39
2023-04-28T11:51:29.232Z,255.61
2023-04-28T11:52:29.178Z,250.57
2023-04-28T11:53:29.150Z,250.00
2023-04-28T11:54:29.344Z,249.77
2023-04-28T11:55:29.088Z,256.53
2023-04-28T11:56:29.014Z,249.64
2023-04-28T11:57:28.982Z,249.59
2023-04-28T11:58:28.930Z,244.51
2023-04-28T11:59:28.870Z,242.03
2023-04-28T12:00:28.840Z,244.34
2023-04-28T12:01:28.777Z,232.74
2023-04-28T12:02:28.896Z,228.73
2023-04-28T12:03:28.761Z,184.43
2023-04-28T12:04:28.656Z,177.71
2023-04-28T12:05:28.635Z,205.44
2023-04-28T12:06:28.560Z,228.45
2023-04-28T12:07:28.523Z,243.75
2023-04-28T12:08:28.469Z,262.34
2023-04-28T12:09:28.392Z,258.89
2023-04-28T12:10:28.323Z,242.97
2023-04-28T12:11:28.302Z,240.44
2023-04-28T12:12:40.214Z,241.23
2023-04-28T12:13:28.177Z,232.77
2023-04-28T12:14:28.117Z,216.25
2023-04-28T12:15:28.071Z,201.65
2023-04-28T12:16:29.690Z,191.35
2023-04-28T12:17:28.114Z,185.97
2023-04-28T12:18:27.962Z,183.64
2023-04-28T12:19:27.875Z,190.69
2023-04-28T12:20:27.799Z,195.21
2023-04-28T12:21:27.794Z,193.94
2023-04-28T12:22:27.736Z,180.68
2023-04-28T12:23:27.770Z,169.27
2023-04-28T12:24:27.594Z,171.25
2023-04-28T12:25:27.699Z,174.24
2023-04-28T12:26:27.495Z,166.55
2023-04-28T12:27:27.475Z,171.37
2023-04-28T12:28:27.772Z,166.54
2023-04-28T12:29:27.773Z,172.48
2023-04-28T12:30:27.304Z,175.44
2023-04-28T12:31:27.335Z,184.52
2023-04-28T12:32:27.247Z,188.41
2023-04-28T12:33:27.221Z,192.10
2023-04-28T12:34:27.284Z,189.10
2023-04-28T12:35:27.110Z,199.09
2023-04-28T12:36:27.021Z,204.09
2023-04-28T12:37:27.010Z,228.53
2023-04-28T12:38:26.919Z,235.51
2023-04-28T12:39:27.292Z,220.54
2023-04-28T12:40:26.828Z,201.39
2023-04-28T12:41:26.764Z,191.72
2023-04-28T12:42:26.745Z,203.62